createdAt,value
2023-02-24T00:03:59.744Z,98062.14
2023-02-24T00:14:26.572Z,98045.48
2023-02-24T00:24:53.349Z,98038.29
2023-02-24T00:35:17.844Z,98023.67
2023-02-24T00:45:42.821Z,98015.53
2023-02-24T00:56:11.469Z,98005.84
2023-02-24T01:06:34.750Z,97993.45
2023-02-24T01:17:00.684Z,97984.75
2023-02-24T01:27:25.666Z,97975.36
2023-02-24T01:37:49.951Z,97961.98
2023-02-24T01:48:16.694Z,97947.50
2023-02-24T01:58:42.086Z,97936.69
2023-02-24T02:09:07.459Z,97926.45
2023-02-24T02:20:15.389Z,97921.48
2023-02-24T02:31:13.051Z,97913.26
2023-02-24T02:41:47.239Z,97901.33
2023-02-24T02:52:17.188Z,97890.55
2023-02-24T03:02:47.351Z,97880.69
2023-02-24T03:13:15.830Z,97875.00
2023-02-24T03:23:46.039Z,97872.35
2023-02-24T03:34:15.301Z,97866.02
2023-02-24T03:44:40.544Z,97859.04
2023-02-24T03:55:20.959Z,97859.27
2023-02-24T04:05:52.867Z,97842.69
2023-02-24T04:16:27.381Z,97824.86
2023-02-24T04:26:54.085Z,97811.46
2023-02-24T04:37:22.494Z,97798.40
2023-02-24T04:47:48.914Z,97791.02
2023-02-24T04:58:18.588Z,97771.97
2023-02-24T05:08:43.340Z,97752.29
2023-02-24T05:19:25.806Z,97738.59
2023-02-24T05:29:50.029Z,97723.23
2023-02-24T05:40:14.990Z,97715.13
2023-02-24T05:50:39.825Z,97711.28
2023-02-24T06:01:15.532Z,97708.40
2023-02-24T06:11:41.606Z,97708.86
2023-02-24T06:22:10.294Z,97718.83
2023-02-24T06:32:35.628Z,97712.77
2023-02-24T06:42:59.949Z,97703.14
2023-02-24T06:53:26.060Z,97693.85
2023-02-24T07:04:03.051Z,97687.61
2023-02-24T07:14:29.997Z,97672.85
2023-02-24T07:24:59.784Z,97676.40
2023-02-24T07:35:24.064Z,97672.56
2023-02-24T07:45:48.370Z,97662.50
2023-02-24T07:56:17.099Z,97655.48
2023-02-24T08:06:45.406Z,97638.73
2023-02-24T08:17:22.368Z,97634.79
2023-02-24T08:28:06.412Z,97623.91
2023-02-24T08:38:41.354Z,97613.14
2023-02-24T08:49:10.198Z,97604.69
2023-02-24T08:59:42.821Z,97601.46
2023-02-24T09:10:11.920Z,97598.02
2023-02-24T09:20:50.890Z,97586.31
2023-02-24T09:31:16.795Z,97585.45
2023-02-24T09:41:56.570Z,97574.77
2023-02-24T09:52:21.014Z,97556.14
2023-02-24T10:02:59.473Z,97542.61
2023-02-24T10:13:31.884Z,97534.83
2023-02-24T10:24:08.887Z,97521.61
2023-02-24T10:34:33.548Z,97508.48
2023-02-24T10:45:17.284Z,97490.09
2023-02-24T10:56:01.531Z,97452.41
2023-02-24T11:06:51.933Z,97432.78
2023-02-24T11:17:26.325Z,97428.18
2023-02-24T11:27:51.685Z,97413.57
2023-02-24T11:38:27.440Z,97388.85
2023-02-24T11:48:56.382Z,97371.27
2023-02-24T11:59:30.380Z,97353.16
2023-02-24T12:10:14.020Z,97341.01
2023-02-24T12:20:45.618Z,97336.90
2023-02-24T12:31:23.346Z,97327.20
2023-02-24T12:41:59.926Z,97307.74
2023-02-24T12:52:34.378Z,97293.83
2023-02-24T13:03:10.132Z,97273.61
2023-02-24T13:13:44.264Z,97253.44
2023-02-24T13:24:22.743Z,97238.83
2023-02-24T13:34:46.995Z,97225.27
2023-02-24T13:45:20.749Z,97212.96
2023-02-24T13:56:01.782Z,97203.45
2023-02-24T14:06:27.474Z,97183.42
2023-02-24T14:16:52.088Z,97179.80
2023-02-24T14:27:24.431Z,97169.95
2023-02-24T14:37:48.973Z,97162.56
2023-02-24T14:48:23.205Z,97156.56
2023-02-24T14:58:51.711Z,97126.80
2023-02-24T15:09:20.460Z,97095.99
2023-02-24T15:19:46.599Z,97097.11
2023-02-24T15:30:28.355Z,97081.23
2023-02-24T15:40:54.529Z,97066.76
2023-02-24T15:51:26.886Z,97052.23
2023-02-24T16:01:51.292Z,97046.14
2023-02-24T16:12:21.772Z,97037.11
2023-02-24T16:22:46.147Z,97027.42
2023-02-24T16:33:13.409Z,97020.72
2023-02-24T16:43:37.819Z,97011.34
2023-02-24T16:54:03.020Z,97006.46
2023-02-24T17:04:27.269Z,96999.23
2023-02-24T17:14:51.828Z,96989.27
2023-02-24T17:25:18.367Z,96986.41
2023-02-24T17:35:43.164Z,96988.37
2023-02-24T17:46:08.220Z,96968.71
2023-02-24T17:56:33.335Z,96966.73
2023-02-24T18:06:57.805Z,96953.42
2023-02-24T18:17:22.591Z,96938.92
2023-02-24T18:27:47.202Z,96927.17
2023-02-24T18:38:11.422Z,96908.37
2023-02-24T18:48:35.916Z,96895.61
2023-02-24T18:59:01.955Z,96875.71
2023-02-24T19:09:27.046Z,96856.80
2023-02-24T19:19:53.115Z,96834.77
2023-02-24T19:30:18.355Z,96820.70
2023-02-24T19:40:43.296Z,96813.41
2023-02-24T19:51:18.626Z,96787.99
2023-02-24T20:01:42.910Z,96773.95
2023-02-24T20:12:07.328Z,96752.42
2023-02-24T20:22:31.528Z,96738.11
2023-02-24T20:32:59.096Z,96722.57
2023-02-24T20:43:24.450Z,96702.53
2023-02-24T20:53:57.241Z,96681.26
2023-02-24T21:04:26.314Z,96666.34
2023-02-24T21:14:50.570Z,96694.88
2023-02-24T21:25:14.817Z,96662.38
2023-02-24T21:35:39.103Z,96666.46
2023-02-24T21:46:04.856Z,96642.45
2023-02-24T21:56:30.330Z,96637.52
2023-02-24T22:06:54.544Z,96618.30
2023-02-24T22:17:18.752Z,96605.23
2023-02-24T22:27:43.122Z,96595.62
2023-02-24T22:38:07.323Z,96592.27
2023-02-24T22:48:33.327Z,96578.53
2023-02-24T22:58:58.392Z,96571.33
2023-02-24T23:09:22.581Z,96566.35
2023-02-24T23:19:46.770Z,96552.38
2023-02-24T23:30:12.548Z,96553.98
2023-02-24T23:40:49.509Z,96558.34
2023-02-24T23:51:16.716Z,96560.09
